sensor_id;sensor_type;location;lat;lon;timestamp;P1;durP1;ratioP1;P2;durP2;ratioP2
68792;SDS011;55778;54.346;10.210;2023-05-13T00:00:07;23.30;;;14.05;;
68792;SDS011;55778;54.346;10.210;2023-05-13T00:02:33;23.25;;;13.70;;
68792;SDS011;55778;54.346;10.210;2023-05-13T00:04:59;24.58;;;14.32;;
68792;SDS011;55778;54.346;10.210;2023-05-13T00:07:24;21.48;;;13.38;;
68792;SDS011;55778;54.346;10.210;2023-05-13T00:09:49;21.65;;;13.65;;
68792;SDS011;55778;54.346;10.210;2023-05-13T00:12:15;22.80;;;13.38;;
68792;SDS011;55778;54.346;10.210;2023-05-13T00:14:40;24.23;;;13.20;;
68792;SDS011;55778;54.346;10.210;2023-05-13T00:17:06;23.48;;;13.05;;
68792;SDS011;55778;54.346;10.210;2023-05-13T00:19:31;20.27;;;12.57;;
68792;SDS011;55778;54.346;10.210;2023-05-13T00:21:56;21.45;;;12.15;;
68792;SDS011;55778;54.346;10.210;2023-05-13T00:24:22;19.55;;;12.35;;
68792;SDS011;55778;54.346;10.210;2023-05-13T00:26:47;19.13;;;12.02;;
68792;SDS011;55778;54.346;10.210;2023-05-13T00:29:12;19.00;;;11.48;;
68792;SDS011;55778;54.346;10.210;2023-05-13T00:31:38;18.48;;;11.75;;
68792;SDS011;55778;54.346;10.210;2023-05-13T00:34:03;16.92;;;11.60;;
68792;SDS011;55778;54.346;10.210;2023-05-13T00:36:28;19.40;;;11.65;;
68792;SDS011;55778;54.346;10.210;2023-05-13T00:38:54;17.38;;;11.10;;
68792;SDS011;55778;54.346;10.210;2023-05-13T00:41:20;21.90;;;11.73;;
68792;SDS011;55778;54.346;10.210;2023-05-13T00:43:46;19.10;;;11.07;;
68792;SDS011;55778;54.346;10.210;2023-05-13T00:46:11;15.48;;;9.98;;
68792;SDS011;55778;54.346;10.210;2023-05-13T00:48:38;16.90;;;10.13;;
68792;SDS011;55778;54.346;10.210;2023-05-13T00:51:04;16.45;;;10.60;;
68792;SDS011;55778;54.346;10.210;2023-05-13T00:53:31;17.15;;;10.77;;
68792;SDS011;55778;54.346;10.210;2023-05-13T00:55:57;14.40;;;9.63;;
68792;SDS011;55778;54.346;10.210;2023-05-13T00:58:22;14.15;;;9.75;;
68792;SDS011;55778;54.346;10.210;2023-05-13T01:00:56;16.50;;;9.48;;
68792;SDS011;55778;54.346;10.210;2023-05-13T01:03:33;15.57;;;9.45;;
68792;SDS011;55778;54.346;10.210;2023-05-13T01:06:09;16.88;;;10.02;;
68792;SDS011;55778;54.346;10.210;2023-05-13T01:11:36;15.02;;;9.70;;
68792;SDS011;55778;54.346;10.210;2023-05-13T01:14:06;15.10;;;9.45;;
68792;SDS011;55778;54.346;10.210;2023-05-13T01:16:39;16.48;;;9.70;;
68792;SDS011;55778;54.346;10.210;2023-05-13T01:19:18;15.40;;;9.68;;
68792;SDS011;55778;54.346;10.210;2023-05-13T01:21:55;12.38;;;8.80;;
68792;SDS011;55778;54.346;10.210;2023-05-13T01:24:20;14.65;;;9.55;;
68792;SDS011;55778;54.346;10.210;2023-05-13T01:26:46;15.32;;;10.10;;
68792;SDS011;55778;54.346;10.210;2023-05-13T01:29:11;17.25;;;10.32;;
68792;SDS011;55778;54.346;10.210;2023-05-13T01:31:37;16.13;;;10.27;;
68792;SDS011;55778;54.346;10.210;2023-05-13T01:34:05;16.42;;;10.10;;
68792;SDS011;55778;54.346;10.210;2023-05-13T01:36:34;16.60;;;10.48;;
68792;SDS011;55778;54.346;10.210;2023-05-13T01:39:00;15.13;;;9.90;;
68792;SDS011;55778;54.346;10.210;2023-05-13T01:41:27;16.88;;;11.38;;
68792;SDS011;55778;54.346;10.210;2023-05-13T01:43:52;17.38;;;11.48;;
68792;SDS011;55778;54.346;10.210;2023-05-13T01:46:17;20.67;;;10.93;;
68792;SDS011;55778;54.346;10.210;2023-05-13T01:48:43;16.75;;;11.15;;
68792;SDS011;55778;54.346;10.210;2023-05-13T01:51:08;16.67;;;10.95;;
68792;SDS011;55778;54.346;10.210;2023-05-13T01:53:34;17.48;;;11.00;;
68792;SDS011;55778;54.346;10.210;2023-05-13T01:55:59;20.77;;;12.07;;
68792;SDS011;55778;54.346;10.210;2023-05-13T01:58:25;14.57;;;10.13;;
68792;SDS011;55778;54.346;10.210;2023-05-13T02:00:50;17.60;;;10.70;;
68792;SDS011;55778;54.346;10.210;2023-05-13T02:03:15;17.00;;;10.65;;
68792;SDS011;55778;54.346;10.210;2023-05-13T02:05:41;16.95;;;10.43;;
68792;SDS011;55778;54.346;10.210;2023-05-13T02:08:06;15.80;;;10.65;;
68792;SDS011;55778;54.346;10.210;2023-05-13T02:10:31;18.77;;;11.32;;
68792;SDS011;55778;54.346;10.210;2023-05-13T02:12:57;17.45;;;11.45;;
68792;SDS011;55778;54.346;10.210;2023-05-13T02:15:22;18.83;;;11.45;;
68792;SDS011;55778;54.346;10.210;2023-05-13T02:17:47;18.88;;;11.93;;
68792;SDS011;55778;54.346;10.210;2023-05-13T02:20:13;17.58;;;11.27;;
68792;SDS011;55778;54.346;10.210;2023-05-13T02:22:38;17.33;;;11.40;;
68792;SDS011;55778;54.346;10.210;2023-05-13T02:25:04;20.98;;;12.05;;
68792;SDS011;55778;54.346;10.210;2023-05-13T02:27:30;18.85;;;12.25;;
68792;SDS011;55778;54.346;10.210;2023-05-13T02:29:55;20.38;;;13.02;;
68792;SDS011;55778;54.346;10.210;2023-05-13T02:32:21;20.17;;;11.80;;
68792;SDS011;55778;54.346;10.210;2023-05-13T02:34:46;20.08;;;12.18;;
68792;SDS011;55778;54.346;10.210;2023-05-13T02:37:11;16.13;;;11.75;;
68792;SDS011;55778;54.346;10.210;2023-05-13T02:39:37;21.27;;;12.50;;
68792;SDS011;55778;54.346;10.210;2023-05-13T02:42:03;21.40;;;12.38;;
68792;SDS011;55778;54.346;10.210;2023-05-13T02:44:28;21.42;;;13.15;;
68792;SDS011;55778;54.346;10.210;2023-05-13T02:46:54;20.27;;;13.13;;
68792;SDS011;55778;54.346;10.210;2023-05-13T02:49:19;21.90;;;13.85;;
68792;SDS011;55778;54.346;10.210;2023-05-13T02:51:45;24.17;;;13.90;;
68792;SDS011;55778;54.346;10.210;2023-05-13T02:54:10;25.45;;;14.30;;
68792;SDS011;55778;54.346;10.210;2023-05-13T02:56:35;23.50;;;15.07;;
68792;SDS011;55778;54.346;10.210;2023-05-13T02:59:01;26.00;;;15.38;;
68792;SDS011;55778;54.346;10.210;2023-05-13T03:01:26;25.98;;;15.70;;
68792;SDS011;55778;54.346;10.210;2023-05-13T03:03:51;24.90;;;14.52;;
68792;SDS011;55778;54.346;10.210;2023-05-13T03:06:17;25.13;;;14.85;;
68792;SDS011;55778;54.346;10.210;2023-05-13T03:08:42;24.33;;;14.88;;
68792;SDS011;55778;54.346;10.210;2023-05-13T03:11:08;25.50;;;15.13;;
68792;SDS011;55778;54.346;10.210;2023-05-13T03:13:34;22.88;;;13.88;;
68792;SDS011;55778;54.346;10.210;2023-05-13T03:15:59;22.67;;;14.05;;
68792;SDS011;55778;54.346;10.210;2023-05-13T03:18:25;21.70;;;13.85;;
68792;SDS011;55778;54.346;10.210;2023-05-13T03:20:52;22.52;;;14.02;;
68792;SDS011;55778;54.346;10.210;2023-05-13T03:23:18;22.77;;;13.73;;
68792;SDS011;55778;54.346;10.210;2023-05-13T03:25:43;22.10;;;14.07;;
68792;SDS011;55778;54.346;10.210;2023-05-13T03:28:08;23.52;;;14.07;;
68792;SDS011;55778;54.346;10.210;2023-05-13T03:30:34;25.27;;;15.07;;
68792;SDS011;55778;54.346;10.210;2023-05-13T03:32:59;25.45;;;14.93;;
68792;SDS011;55778;54.346;10.210;2023-05-13T03:35:25;21.67;;;13.88;;
68792;SDS011;55778;54.346;10.210;2023-05-13T03:37:50;20.50;;;13.15;;
68792;SDS011;55778;54.346;10.210;2023-05-13T03:40:16;22.50;;;13.85;;
68792;SDS011;55778;54.346;10.210;2023-05-13T03:42:41;26.10;;;14.80;;
68792;SDS011;55778;54.346;10.210;2023-05-13T03:45:07;21.77;;;13.55;;
68792;SDS011;55778;54.346;10.210;2023-05-13T03:47:33;22.15;;;13.50;;
68792;SDS011;55778;54.346;10.210;2023-05-13T03:49:58;22.80;;;13.90;;
68792;SDS011;55778;54.346;10.210;2023-05-13T03:52:24;24.73;;;13.90;;
68792;SDS011;55778;54.346;10.210;2023-05-13T03:54:49;23.67;;;13.73;;
68792;SDS011;55778;54.346;10.210;2023-05-13T03:57:15;24.23;;;14.80;;
68792;SDS011;55778;54.346;10.210;2023-05-13T03:59:40;27.50;;;14.65;;
68792;SDS011;55778;54.346;10.210;2023-05-13T04:02:05;25.38;;;13.57;;
68792;SDS011;55778;54.346;10.210;2023-05-13T04:04:31;24.20;;;13.65;;
68792;SDS011;55778;54.346;10.210;2023-05-13T04:06:56;22.27;;;13.73;;
68792;SDS011;55778;54.346;10.210;2023-05-13T04:09:21;24.15;;;14.02;;
68792;SDS011;55778;54.346;10.210;2023-05-13T04:11:47;22.30;;;14.02;;
68792;SDS011;55778;54.346;10.210;2023-05-13T04:14:12;22.98;;;13.27;;
68792;SDS011;55778;54.346;10.210;2023-05-13T04:16:37;23.48;;;14.13;;
68792;SDS011;55778;54.346;10.210;2023-05-13T04:19:03;22.98;;;13.48;;
68792;SDS011;55778;54.346;10.210;2023-05-13T04:21:28;20.00;;;12.77;;
68792;SDS011;55778;54.346;10.210;2023-05-13T04:23:54;19.35;;;12.57;;
68792;SDS011;55778;54.346;10.210;2023-05-13T04:26:22;21.90;;;13.05;;
68792;SDS011;55778;54.346;10.210;2023-05-13T04:28:47;20.73;;;13.57;;
68792;SDS011;55778;54.346;10.210;2023-05-13T04:31:13;20.75;;;12.30;;
68792;SDS011;55778;54.346;10.210;2023-05-13T04:33:38;21.23;;;12.52;;
68792;SDS011;55778;54.346;10.210;2023-05-13T04:36:04;20.48;;;12.40;;
68792;SDS011;55778;54.346;10.210;2023-05-13T04:38:30;18.02;;;11.82;;
68792;SDS011;55778;54.346;10.210;2023-05-13T04:40:55;17.90;;;11.77;;
68792;SDS011;55778;54.346;10.210;2023-05-13T04:43:21;21.00;;;12.43;;
68792;SDS011;55778;54.346;10.210;2023-05-13T04:45:46;18.33;;;11.70;;
68792;SDS011;55778;54.346;10.210;2023-05-13T04:48:13;19.83;;;11.95;;
68792;SDS011;55778;54.346;10.210;2023-05-13T04:50:43;16.85;;;11.23;;
68792;SDS011;55778;54.346;10.210;2023-05-13T04:53:09;18.92;;;12.02;;
68792;SDS011;55778;54.346;10.210;2023-05-13T04:55:34;19.65;;;11.65;;
68792;SDS011;55778;54.346;10.210;2023-05-13T04:58:00;22.67;;;12.75;;
68792;SDS011;55778;54.346;10.210;2023-05-13T05:00:25;18.13;;;11.48;;
68792;SDS011;55778;54.346;10.210;2023-05-13T05:02:50;20.05;;;11.48;;
68792;SDS011;55778;54.346;10.210;2023-05-13T05:05:16;17.67;;;11.20;;
68792;SDS011;55778;54.346;10.210;2023-05-13T05:07:41;18.42;;;11.43;;
68792;SDS011;55778;54.346;10.210;2023-05-13T05:10:07;17.58;;;10.93;;
68792;SDS011;55778;54.346;10.210;2023-05-13T05:12:33;16.38;;;10.95;;
68792;SDS011;55778;54.346;10.210;2023-05-13T05:14:58;16.83;;;9.82;;
68792;SDS011;55778;54.346;10.210;2023-05-13T05:17:23;14.80;;;9.80;;
68792;SDS011;55778;54.346;10.210;2023-05-13T05:19:49;15.20;;;9.82;;
68792;SDS011;55778;54.346;10.210;2023-05-13T05:22:14;14.73;;;10.20;;
68792;SDS011;55778;54.346;10.210;2023-05-13T05:24:39;15.82;;;9.60;;
68792;SDS011;55778;54.346;10.210;2023-05-13T05:27:05;17.67;;;9.75;;
68792;SDS011;55778;54.346;10.210;2023-05-13T05:29:31;12.88;;;9.43;;
68792;SDS011;55778;54.346;10.210;2023-05-13T05:31:56;15.40;;;9.13;;
68792;SDS011;55778;54.346;10.210;2023-05-13T05:34:21;14.77;;;9.25;;
68792;SDS011;55778;54.346;10.210;2023-05-13T05:36:47;14.85;;;9.07;;
68792;SDS011;55778;54.346;10.210;2023-05-13T05:39:12;15.75;;;9.60;;
68792;SDS011;55778;54.346;10.210;2023-05-13T05:41:37;13.23;;;8.95;;
68792;SDS011;55778;54.346;10.210;2023-05-13T05:44:03;12.18;;;8.70;;
68792;SDS011;55778;54.346;10.210;2023-05-13T05:46:28;12.38;;;8.65;;
68792;SDS011;55778;54.346;10.210;2023-05-13T05:48:54;12.77;;;7.95;;
68792;SDS011;55778;54.346;10.210;2023-05-13T05:51:19;14.20;;;8.77;;
68792;SDS011;55778;54.346;10.210;2023-05-13T05:53:44;12.90;;;8.73;;
68792;SDS011;55778;54.346;10.210;2023-05-13T05:56:10;13.70;;;8.40;;
68792;SDS011;55778;54.346;10.210;2023-05-13T05:58:35;11.18;;;8.50;;
68792;SDS011;55778;54.346;10.210;2023-05-13T06:01:01;11.40;;;8.05;;
68792;SDS011;55778;54.346;10.210;2023-05-13T06:03:26;13.75;;;8.10;;
68792;SDS011;55778;54.346;10.210;2023-05-13T06:05:52;11.55;;;8.38;;
68792;SDS011;55778;54.346;10.210;2023-05-13T06:08:18;12.00;;;7.85;;
68792;SDS011;55778;54.346;10.210;2023-05-13T06:10:43;14.38;;;8.80;;
68792;SDS011;55778;54.346;10.210;2023-05-13T06:13:09;13.35;;;8.63;;
68792;SDS011;55778;54.346;10.210;2023-05-13T06:15:35;12.80;;;8.00;;
68792;SDS011;55778;54.346;10.210;2023-05-13T06:18:02;12.10;;;8.27;;
68792;SDS011;55778;54.346;10.210;2023-05-13T06:20:29;11.18;;;8.02;;
68792;SDS011;55778;54.346;10.210;2023-05-13T06:22:55;14.15;;;8.10;;
68792;SDS011;55778;54.346;10.210;2023-05-13T06:25:20;10.65;;;7.95;;
68792;SDS011;55778;54.346;10.210;2023-05-13T06:27:46;13.20;;;8.38;;
68792;SDS011;55778;54.346;10.210;2023-05-13T06:30:11;13.98;;;8.52;;
68792;SDS011;55778;54.346;10.210;2023-05-13T06:32:37;12.07;;;8.60;;
68792;SDS011;55778;54.346;10.210;2023-05-13T06:35:02;11.95;;;8.05;;
68792;SDS011;55778;54.346;10.210;2023-05-13T06:37:28;11.75;;;7.60;;
68792;SDS011;55778;54.346;10.210;2023-05-13T06:39:53;16.67;;;7.35;;
68792;SDS011;55778;54.346;10.210;2023-05-13T06:42:19;12.38;;;7.38;;
68792;SDS011;55778;54.346;10.210;2023-05-13T06:44:44;12.25;;;7.25;;
68792;SDS011;55778;54.346;10.210;2023-05-13T06:47:09;11.07;;;7.80;;
68792;SDS011;55778;54.346;10.210;2023-05-13T06:49:39;12.13;;;7.22;;
68792;SDS011;55778;54.346;10.210;2023-05-13T06:52:05;14.30;;;7.22;;
68792;SDS011;55778;54.346;10.210;2023-05-13T06:54:30;12.93;;;7.20;;
68792;SDS011;55778;54.346;10.210;2023-05-13T06:56:59;11.55;;;7.60;;
68792;SDS011;55778;54.346;10.210;2023-05-13T06:59:29;11.40;;;7.10;;
68792;SDS011;55778;54.346;10.210;2023-05-13T07:01:55;13.05;;;8.23;;
68792;SDS011;55778;54.346;10.210;2023-05-13T07:04:21;12.50;;;7.28;;
68792;SDS011;55778;54.346;10.210;2023-05-13T07:06:46;13.85;;;7.65;;
68792;SDS011;55778;54.346;10.210;2023-05-13T07:09:13;11.93;;;6.80;;
68792;SDS011;55778;54.346;10.210;2023-05-13T07:11:41;9.52;;;7.25;;
68792;SDS011;55778;54.346;10.210;2023-05-13T07:14:06;9.95;;;6.30;;
68792;SDS011;55778;54.346;10.210;2023-05-13T07:16:32;8.80;;;6.72;;
68792;SDS011;55778;54.346;10.210;2023-05-13T07:18:57;9.10;;;6.35;;
68792;SDS011;55778;54.346;10.210;2023-05-13T07:21:23;9.13;;;6.10;;
68792;SDS011;55778;54.346;10.210;2023-05-13T07:23:48;9.85;;;6.75;;
68792;SDS011;55778;54.346;10.210;2023-05-13T07:26:13;8.75;;;6.72;;
68792;SDS011;55778;54.346;10.210;2023-05-13T07:28:39;10.30;;;6.95;;
68792;SDS011;55778;54.346;10.210;2023-05-13T07:31:04;8.95;;;6.32;;
68792;SDS011;55778;54.346;10.210;2023-05-13T07:33:30;9.93;;;6.45;;
68792;SDS011;55778;54.346;10.210;2023-05-13T07:35:55;11.85;;;6.57;;
68792;SDS011;55778;54.346;10.210;2023-05-13T07:38:21;14.70;;;6.53;;
68792;SDS011;55778;54.346;10.210;2023-05-13T07:40:46;9.93;;;6.47;;
68792;SDS011;55778;54.346;10.210;2023-05-13T07:43:12;12.18;;;6.63;;
68792;SDS011;55778;54.346;10.210;2023-05-13T07:45:38;12.43;;;7.05;;
68792;SDS011;55778;54.346;10.210;2023-05-13T07:48:04;10.32;;;6.15;;
68792;SDS011;55778;54.346;10.210;2023-05-13T07:50:29;11.77;;;5.97;;
68792;SDS011;55778;54.346;10.210;2023-05-13T07:52:55;6.90;;;5.78;;
68792;SDS011;55778;54.346;10.210;2023-05-13T07:55:21;8.80;;;5.85;;
68792;SDS011;55778;54.346;10.210;2023-05-13T07:57:47;13.02;;;9.45;;
68792;SDS011;55778;54.346;10.210;2023-05-13T08:00:12;11.40;;;6.10;;
68792;SDS011;55778;54.346;10.210;2023-05-13T08:02:40;9.40;;;6.43;;
68792;SDS011;55778;54.346;10.210;2023-05-13T08:05:06;8.48;;;6.30;;
68792;SDS011;55778;54.346;10.210;2023-05-13T08:07:32;9.98;;;6.03;;
68792;SDS011;55778;54.346;10.210;2023-05-13T08:09:58;9.25;;;6.50;;
68792;SDS011;55778;54.346;10.210;2023-05-13T08:12:24;8.38;;;5.72;;
68792;SDS011;55778;54.346;10.210;2023-05-13T08:14:50;9.73;;;5.55;;
68792;SDS011;55778;54.346;10.210;2023-05-13T08:17:18;9.10;;;6.25;;
68792;SDS011;55778;54.346;10.210;2023-05-13T08:19:43;8.88;;;6.53;;
68792;SDS011;55778;54.346;10.210;2023-05-13T08:22:10;10.55;;;6.05;;
68792;SDS011;55778;54.346;10.210;2023-05-13T08:24:35;8.88;;;5.63;;
68792;SDS011;55778;54.346;10.210;2023-05-13T08:27:00;9.52;;;6.07;;
68792;SDS011;55778;54.346;10.210;2023-05-13T08:29:29;8.27;;;6.07;;
68792;SDS011;55778;54.346;10.210;2023-05-13T08:31:54;9.15;;;6.00;;
68792;SDS011;55778;54.346;10.210;2023-05-13T08:34:19;8.10;;;6.22;;
68792;SDS011;55778;54.346;10.210;2023-05-13T08:36:45;9.90;;;6.32;;
68792;SDS011;55778;54.346;10.210;2023-05-13T08:39:10;9.27;;;6.18;;
68792;SDS011;55778;54.346;10.210;2023-05-13T08:41:36;10.38;;;5.50;;
68792;SDS011;55778;54.346;10.210;2023-05-13T08:44:03;9.15;;;5.38;;
68792;SDS011;55778;54.346;10.210;2023-05-13T08:46:31;8.60;;;5.82;;
68792;SDS011;55778;54.346;10.210;2023-05-13T08:48:58;9.70;;;5.60;;
68792;SDS011;55778;54.346;10.210;2023-05-13T08:51:23;8.90;;;6.10;;
68792;SDS011;55778;54.346;10.210;2023-05-13T08:53:50;10.10;;;6.53;;
68792;SDS011;55778;54.346;10.210;2023-05-13T08:56:17;8.68;;;6.53;;
68792;SDS011;55778;54.346;10.210;2023-05-13T08:58:45;11.43;;;7.00;;
68792;SDS011;55778;54.346;10.210;2023-05-13T09:01:11;8.23;;;5.93;;
68792;SDS011;55778;54.346;10.210;2023-05-13T09:03:36;9.98;;;5.88;;
68792;SDS011;55778;54.346;10.210;2023-05-13T09:06:16;8.60;;;5.97;;
68792;SDS011;55778;54.346;10.210;2023-05-13T09:08:41;9.55;;;6.30;;
68792;SDS011;55778;54.346;10.210;2023-05-13T09:11:07;8.32;;;6.03;;
68792;SDS011;55778;54.346;10.210;2023-05-13T09:13:33;9.40;;;6.20;;
68792;SDS011;55778;54.346;10.210;2023-05-13T09:15:59;10.10;;;6.40;;
68792;SDS011;55778;54.346;10.210;2023-05-13T09:18:29;7.78;;;6.07;;
68792;SDS011;55778;54.346;10.210;2023-05-13T09:20:57;9.27;;;5.90;;
68792;SDS011;55778;54.346;10.210;2023-05-13T09:23:43;8.35;;;6.10;;
68792;SDS011;55778;54.346;10.210;2023-05-13T09:26:24;12.02;;;6.22;;
68792;SDS011;55778;54.346;10.210;2023-05-13T09:29:12;9.75;;;5.95;;
68792;SDS011;55778;54.346;10.210;2023-05-13T09:31:42;8.85;;;6.43;;
68792;SDS011;55778;54.346;10.210;2023-05-13T09:34:08;10.95;;;6.43;;
68792;SDS011;55778;54.346;10.210;2023-05-13T09:36:33;12.02;;;6.35;;
68792;SDS011;55778;54.346;10.210;2023-05-13T09:38:58;8.95;;;6.32;;
68792;SDS011;55778;54.346;10.210;2023-05-13T09:41:27;12.93;;;7.68;;
68792;SDS011;55778;54.346;10.210;2023-05-13T09:43:54;12.00;;;6.82;;
68792;SDS011;55778;54.346;10.210;2023-05-13T09:46:20;11.40;;;6.30;;
68792;SDS011;55778;54.346;10.210;2023-05-13T09:48:45;11.52;;;5.93;;
68792;SDS011;55778;54.346;10.210;2023-05-13T09:51:11;8.90;;;5.68;;
68792;SDS011;55778;54.346;10.210;2023-05-13T09:53:39;7.68;;;5.43;;
68792;SDS011;55778;54.346;10.210;2023-05-13T09:56:06;8.48;;;5.53;;
68792;SDS011;55778;54.346;10.210;2023-05-13T10:01:00;8.10;;;5.20;;
68792;SDS011;55778;54.346;10.210;2023-05-13T10:03:26;6.75;;;4.80;;
68792;SDS011;55778;54.346;10.210;2023-05-13T10:05:56;6.85;;;4.63;;
68792;SDS011;55778;54.346;10.210;2023-05-13T10:08:23;7.95;;;5.22;;
68792;SDS011;55778;54.346;10.210;2023-05-13T10:10:53;8.27;;;5.40;;
68792;SDS011;55778;54.346;10.210;2023-05-13T10:13:21;7.28;;;4.50;;
68792;SDS011;55778;54.346;10.210;2023-05-13T10:15:49;7.57;;;4.45;;
68792;SDS011;55778;54.346;10.210;2023-05-13T10:18:16;9.32;;;5.47;;
68792;SDS011;55778;54.346;10.210;2023-05-13T10:20:42;7.07;;;4.95;;
68792;SDS011;55778;54.346;10.210;2023-05-13T10:23:08;7.40;;;4.97;;
68792;SDS011;55778;54.346;10.210;2023-05-13T10:25:35;6.88;;;4.72;;
68792;SDS011;55778;54.346;10.210;2023-05-13T10:28:02;7.03;;;4.30;;
68792;SDS011;55778;54.346;10.210;2023-05-13T10:30:28;7.45;;;4.45;;
68792;SDS011;55778;54.346;10.210;2023-05-13T10:32:56;5.28;;;4.40;;
68792;SDS011;55778;54.346;10.210;2023-05-13T10:35:22;6.32;;;4.45;;
68792;SDS011;55778;54.346;10.210;2023-05-13T10:43:20;6.28;;;4.53;;
68792;SDS011;55778;54.346;10.210;2023-05-13T10:45:47;6.20;;;4.70;;
68792;SDS011;55778;54.346;10.210;2023-05-13T10:48:14;6.10;;;4.38;;
68792;SDS011;55778;54.346;10.210;2023-05-13T10:50:53;9.57;;;4.90;;
68792;SDS011;55778;54.346;10.210;2023-05-13T10:53:23;7.55;;;4.90;;
68792;SDS011;55778;54.346;10.210;2023-05-13T10:55:52;6.80;;;4.28;;
68792;SDS011;55778;54.346;10.210;2023-05-13T10:58:28;6.47;;;4.10;;
68792;SDS011;55778;54.346;10.210;2023-05-13T11:01:11;6.82;;;4.22;;
68792;SDS011;55778;54.346;10.210;2023-05-13T11:03:36;8.27;;;4.55;;
68792;SDS011;55778;54.346;10.210;2023-05-13T11:06:17;8.20;;;4.40;;
68792;SDS011;55778;54.346;10.210;2023-05-13T11:08:48;6.80;;;4.13;;
68792;SDS011;55778;54.346;10.210;2023-05-13T11:13:52;8.32;;;4.57;;
68792;SDS011;55778;54.346;10.210;2023-05-13T11:16:19;6.13;;;4.40;;
68792;SDS011;55778;54.346;10.210;2023-05-13T11:18:46;9.20;;;4.50;;
68792;SDS011;55778;54.346;10.210;2023-05-13T11:21:13;5.93;;;4.55;;
68792;SDS011;55778;54.346;10.210;2023-05-13T11:23:57;6.47;;;4.30;;
68792;SDS011;55778;54.346;10.210;2023-05-13T11:26:25;7.85;;;4.68;;
68792;SDS011;55778;54.346;10.210;2023-05-13T11:28:58;6.40;;;4.63;;
68792;SDS011;55778;54.346;10.210;2023-05-13T11:31:27;6.35;;;4.57;;
68792;SDS011;55778;54.346;10.210;2023-05-13T11:36:36;6.32;;;4.50;;
68792;SDS011;55778;54.346;10.210;2023-05-13T11:39:06;8.38;;;4.80;;
68792;SDS011;55778;54.346;10.210;2023-05-13T11:41:35;7.32;;;4.53;;
68792;SDS011;55778;54.346;10.210;2023-05-13T11:44:03;9.18;;;4.97;;
68792;SDS011;55778;54.346;10.210;2023-05-13T11:46:29;7.65;;;4.50;;
68792;SDS011;55778;54.346;10.210;2023-05-13T11:48:55;8.73;;;5.30;;
68792;SDS011;55778;54.346;10.210;2023-05-13T11:51:20;9.05;;;5.13;;
68792;SDS011;55778;54.346;10.210;2023-05-13T11:53:46;6.30;;;4.82;;
68792;SDS011;55778;54.346;10.210;2023-05-13T11:56:11;9.70;;;5.40;;
68792;SDS011;55778;54.346;10.210;2023-05-13T11:58:37;7.72;;;5.00;;
68792;SDS011;55778;54.346;10.210;2023-05-13T12:01:02;8.68;;;5.18;;
68792;SDS011;55778;54.346;10.210;2023-05-13T12:03:28;5.43;;;4.47;;
68792;SDS011;55778;54.346;10.210;2023-05-13T12:06:00;7.25;;;5.00;;
68792;SDS011;55778;54.346;10.210;2023-05-13T12:08:26;7.43;;;4.88;;
68792;SDS011;55778;54.346;10.210;2023-05-13T12:10:51;8.20;;;5.00;;
68792;SDS011;55778;54.346;10.210;2023-05-13T12:13:17;5.97;;;4.95;;
68792;SDS011;55778;54.346;10.210;2023-05-13T12:15:43;9.02;;;4.70;;
68792;SDS011;55778;54.346;10.210;2023-05-13T12:18:09;6.57;;;4.78;;
68792;SDS011;55778;54.346;10.210;2023-05-13T12:20:35;7.80;;;4.90;;
68792;SDS011;55778;54.346;10.210;2023-05-13T12:23:02;10.90;;;5.22;;
68792;SDS011;55778;54.346;10.210;2023-05-13T12:25:32;5.63;;;4.45;;
68792;SDS011;55778;54.346;10.210;2023-05-13T12:28:05;8.13;;;4.93;;
68792;SDS011;55778;54.346;10.210;2023-05-13T12:30:41;10.15;;;4.78;;
68792;SDS011;55778;54.346;10.210;2023-05-13T12:33:18;10.90;;;4.80;;
68792;SDS011;55778;54.346;10.210;2023-05-13T12:35:45;8.85;;;5.50;;
68792;SDS011;55778;54.346;10.210;2023-05-13T12:38:16;7.32;;;4.90;;
68792;SDS011;55778;54.346;10.210;2023-05-13T12:40:46;8.13;;;4.97;;
68792;SDS011;55778;54.346;10.210;2023-05-13T12:43:13;7.32;;;4.68;;
68792;SDS011;55778;54.346;10.210;2023-05-13T12:45:41;7.60;;;4.78;;
68792;SDS011;55778;54.346;10.210;2023-05-13T12:48:08;8.57;;;4.88;;
68792;SDS011;55778;54.346;10.210;2023-05-13T12:50:33;5.93;;;4.68;;
68792;SDS011;55778;54.346;10.210;2023-05-13T12:52:59;6.75;;;5.47;;
68792;SDS011;55778;54.346;10.210;2023-05-13T12:55:24;5.68;;;5.03;;
68792;SDS011;55778;54.346;10.210;2023-05-13T12:58:00;7.45;;;4.88;;
68792;SDS011;55778;54.346;10.210;2023-05-13T13:00:27;10.07;;;5.00;;
68792;SDS011;55778;54.346;10.210;2023-05-13T13:02:53;9.85;;;4.80;;
68792;SDS011;55778;54.346;10.210;2023-05-13T13:05:19;6.35;;;4.50;;
68792;SDS011;55778;54.346;10.210;2023-05-13T13:07:45;9.20;;;4.93;;
68792;SDS011;55778;54.346;10.210;2023-05-13T13:10:11;6.60;;;4.43;;
68792;SDS011;55778;54.346;10.210;2023-05-13T13:12:37;7.28;;;4.95;;
68792;SDS011;55778;54.346;10.210;2023-05-13T13:15:03;7.80;;;5.25;;
68792;SDS011;55778;54.346;10.210;2023-05-13T13:17:30;5.90;;;4.82;;
68792;SDS011;55778;54.346;10.210;2023-05-13T13:19:56;6.35;;;4.75;;
68792;SDS011;55778;54.346;10.210;2023-05-13T13:22:21;6.20;;;4.57;;
68792;SDS011;55778;54.346;10.210;2023-05-13T13:24:46;6.10;;;4.45;;
68792;SDS011;55778;54.346;10.210;2023-05-13T13:27:12;7.60;;;5.25;;
68792;SDS011;55778;54.346;10.210;2023-05-13T13:29:37;7.35;;;4.60;;
68792;SDS011;55778;54.346;10.210;2023-05-13T13:32:03;8.25;;;5.88;;
68792;SDS011;55778;54.346;10.210;2023-05-13T13:34:28;7.75;;;4.47;;
68792;SDS011;55778;54.346;10.210;2023-05-13T13:36:54;7.47;;;4.78;;
68792;SDS011;55778;54.346;10.210;2023-05-13T13:39:19;6.28;;;4.75;;
68792;SDS011;55778;54.346;10.210;2023-05-13T13:41:45;5.70;;;4.40;;
68792;SDS011;55778;54.346;10.210;2023-05-13T13:44:11;6.70;;;4.28;;
68792;SDS011;55778;54.346;10.210;2023-05-13T13:46:37;8.23;;;4.40;;
68792;SDS011;55778;54.346;10.210;2023-05-13T13:49:02;8.88;;;4.07;;
68792;SDS011;55778;54.346;10.210;2023-05-13T13:51:30;6.10;;;4.00;;
68792;SDS011;55778;54.346;10.210;2023-05-13T13:53:56;5.53;;;3.55;;
68792;SDS011;55778;54.346;10.210;2023-05-13T13:56:21;4.85;;;3.53;;
68792;SDS011;55778;54.346;10.210;2023-05-13T13:58:46;5.07;;;3.75;;
68792;SDS011;55778;54.346;10.210;2023-05-13T14:01:12;5.97;;;3.45;;
68792;SDS011;55778;54.346;10.210;2023-05-13T14:03:38;8.45;;;3.35;;
68792;SDS011;55778;54.346;10.210;2023-05-13T14:06:03;5.35;;;3.13;;
68792;SDS011;55778;54.346;10.210;2023-05-13T14:08:29;6.95;;;3.17;;
68792;SDS011;55778;54.346;10.210;2023-05-13T14:10:54;4.57;;;3.38;;
68792;SDS011;55778;54.346;10.210;2023-05-13T14:13:20;5.65;;;3.30;;
68792;SDS011;55778;54.346;10.210;2023-05-13T14:15:45;4.65;;;2.88;;
68792;SDS011;55778;54.346;10.210;2023-05-13T14:18:11;5.10;;;3.10;;
68792;SDS011;55778;54.346;10.210;2023-05-13T14:20:36;9.73;;;3.35;;
68792;SDS011;55778;54.346;10.210;2023-05-13T14:23:03;11.05;;;3.53;;
68792;SDS011;55778;54.346;10.210;2023-05-13T14:25:28;4.53;;;3.33;;
68792;SDS011;55778;54.346;10.210;2023-05-13T14:27:54;3.92;;;2.80;;
68792;SDS011;55778;54.346;10.210;2023-05-13T14:30:19;7.10;;;3.00;;
68792;SDS011;55778;54.346;10.210;2023-05-13T14:32:44;6.85;;;3.17;;
68792;SDS011;55778;54.346;10.210;2023-05-13T14:35:11;3.90;;;3.03;;